createdAt,value
2023-02-23T00:01:37.694Z,18.08
2023-02-23T00:04:04.377Z,19.53
2023-02-23T00:06:33.108Z,20.25
2023-02-23T00:09:01.185Z,19.20
2023-02-23T00:11:28.373Z,19.90
2023-02-23T00:13:56.745Z,18.83
2023-02-23T00:16:24.936Z,18.97
2023-02-23T00:18:56.960Z,20.00
2023-02-23T00:21:26.096Z,19.10
2023-02-23T00:23:55.468Z,19.80
2023-02-23T00:26:24.363Z,19.95
2023-02-23T00:28:52.938Z,21.13
2023-02-23T00:31:25.733Z,20.58
2023-02-23T00:33:57.236Z,19.48
2023-02-23T00:36:26.918Z,21.70
2023-02-23T00:38:55.286Z,20.98
2023-02-23T00:41:30.861Z,22.17
2023-02-23T00:43:59.743Z,21.63
2023-02-23T00:46:28.820Z,21.83
2023-02-23T00:48:56.900Z,20.70
2023-02-23T00:51:30.995Z,21.45
2023-02-23T00:53:59.660Z,22.47
2023-02-23T00:56:27.167Z,21.52
2023-02-23T00:58:54.426Z,22.60
2023-02-23T01:01:22.085Z,22.10
2023-02-23T01:03:49.117Z,21.73
2023-02-23T01:06:17.339Z,21.77
2023-02-23T01:08:46.212Z,22.30
2023-02-23T01:11:15.074Z,20.73
2023-02-23T01:13:43.998Z,21.17
2023-02-23T01:16:13.645Z,21.20
2023-02-23T01:18:41.394Z,21.43
2023-02-23T01:21:21.598Z,22.98
2023-02-23T01:23:48.028Z,22.02
2023-02-23T01:26:34.031Z,22.48
2023-02-23T01:29:15.610Z,21.73
2023-02-23T01:31:45.758Z,22.37
2023-02-23T01:34:14.245Z,22.70
2023-02-23T01:36:42.652Z,22.33
2023-02-23T01:39:14.876Z,20.98
2023-02-23T01:41:42.394Z,21.92
2023-02-23T01:44:31.632Z,21.87
2023-02-23T01:46:58.351Z,23.95
2023-02-23T01:49:28.300Z,22.02
2023-02-23T01:52:11.586Z,23.00
2023-02-23T01:54:41.689Z,22.88
2023-02-23T01:57:13.801Z,22.13
2023-02-23T01:59:44.274Z,22.58
2023-02-23T02:02:13.365Z,22.08
2023-02-23T02:04:45.128Z,22.75
2023-02-23T02:07:26.922Z,20.33
2023-02-23T02:10:11.330Z,21.73
2023-02-23T02:12:46.347Z,22.23
2023-02-23T02:15:17.519Z,21.63
2023-02-23T02:18:03.276Z,21.92
2023-02-23T02:20:57.194Z,22.80
2023-02-23T02:24:08.256Z,20.27
2023-02-23T02:26:49.814Z,20.77
2023-02-23T02:29:34.589Z,22.08
2023-02-23T02:32:18.979Z,22.63
2023-02-23T02:34:48.385Z,21.73
2023-02-23T02:37:17.638Z,21.87
2023-02-23T02:39:53.559Z,22.08
2023-02-23T02:42:33.025Z,20.73
2023-02-23T02:45:17.984Z,20.30
2023-02-23T02:48:10.745Z,21.15
2023-02-23T02:50:58.425Z,21.37
2023-02-23T02:53:45.003Z,21.35
2023-02-23T02:56:16.512Z,21.02
2023-02-23T02:58:43.476Z,22.30
2023-02-23T03:01:33.178Z,21.98
2023-02-23T03:04:23.551Z,21.93
2023-02-23T03:07:22.974Z,21.33
2023-02-23T03:10:27.010Z,22.83
2023-02-23T03:13:34.999Z,22.73
2023-02-23T03:16:41.781Z,22.05
2023-02-23T03:19:47.810Z,21.73
2023-02-23T03:22:57.565Z,20.67
2023-02-23T03:26:13.662Z,21.60
2023-02-23T03:29:26.640Z,20.60
2023-02-23T03:32:27.156Z,20.90
2023-02-23T03:35:24.077Z,21.40
2023-02-23T03:38:19.034Z,21.38
2023-02-23T03:41:07.838Z,22.20
2023-02-23T03:44:02.226Z,21.85
2023-02-23T03:46:49.004Z,21.33
2023-02-23T03:49:37.304Z,20.73
2023-02-23T03:52:29.287Z,21.42
2023-02-23T03:55:21.267Z,21.05
2023-02-23T03:58:11.590Z,20.73
2023-02-23T04:01:04.244Z,19.75
2023-02-23T04:03:52.793Z,19.87
2023-02-23T04:06:42.688Z,19.20
2023-02-23T04:09:27.524Z,19.92
2023-02-23T04:12:21.932Z,19.45
2023-02-23T04:15:08.453Z,20.52
2023-02-23T04:17:35.221Z,19.60
2023-02-23T04:20:02.019Z,19.30
2023-02-23T04:22:28.425Z,20.25
2023-02-23T04:24:54.794Z,21.55
2023-02-23T04:27:21.169Z,21.98
2023-02-23T04:29:47.550Z,20.63
2023-02-23T04:32:17.659Z,19.05
2023-02-23T04:34:45.083Z,20.58
2023-02-23T04:37:12.617Z,21.05
2023-02-23T04:39:39.286Z,21.27
2023-02-23T04:42:05.725Z,21.57
2023-02-23T04:44:32.094Z,19.70
2023-02-23T04:46:58.517Z,20.05
2023-02-23T04:49:24.969Z,20.05
2023-02-23T04:51:51.304Z,21.02
2023-02-23T04:54:18.188Z,19.83
2023-02-23T04:56:44.574Z,19.77
2023-02-23T04:59:11.021Z,21.02
2023-02-23T05:01:37.471Z,20.33
2023-02-23T05:04:04.017Z,21.05
2023-02-23T05:06:30.928Z,20.40
2023-02-23T05:08:57.443Z,20.33
2023-02-23T05:11:24.919Z,21.08
2023-02-23T05:13:52.047Z,21.23
2023-02-23T05:16:18.463Z,21.10
2023-02-23T05:18:44.911Z,21.20
2023-02-23T05:21:11.435Z,22.23
2023-02-23T05:23:38.446Z,20.77
2023-02-23T05:26:11.920Z,22.50
2023-02-23T05:28:40.863Z,21.70
2023-02-23T05:31:07.801Z,21.07
2023-02-23T05:33:35.595Z,20.42
2023-02-23T05:36:05.458Z,20.70
2023-02-23T05:38:31.856Z,21.15
2023-02-23T05:40:58.190Z,19.92
2023-02-23T05:43:24.573Z,21.60
2023-02-23T05:45:50.971Z,20.95
2023-02-23T05:48:17.302Z,20.40
2023-02-23T05:50:43.661Z,21.73
2023-02-23T05:53:10.364Z,20.98
2023-02-23T05:55:37.530Z,20.47
2023-02-23T05:58:03.895Z,21.00
2023-02-23T06:00:30.342Z,20.02
2023-02-23T06:02:56.877Z,20.02
2023-02-23T06:05:23.358Z,20.20
2023-02-23T06:07:49.762Z,20.83
2023-02-23T06:10:16.502Z,19.92
2023-02-23T06:12:42.890Z,20.92
2023-02-23T06:15:09.687Z,19.38
2023-02-23T06:17:36.386Z,20.67
2023-02-23T06:20:04.821Z,19.57
2023-02-23T06:22:31.193Z,20.55
2023-02-23T06:24:57.547Z,19.15
2023-02-23T06:27:23.992Z,18.63
2023-02-23T06:29:50.406Z,19.15
2023-02-23T06:32:16.878Z,18.80
2023-02-23T06:34:44.801Z,18.80
2023-02-23T06:37:12.012Z,18.95
2023-02-23T06:39:38.498Z,18.63
2023-02-23T06:42:04.944Z,18.33
2023-02-23T06:44:31.372Z,18.53
2023-02-23T06:46:57.734Z,18.35
2023-02-23T06:49:24.309Z,18.80
2023-02-23T06:51:50.691Z,18.15
2023-02-23T06:54:17.579Z,19.17
2023-02-23T06:56:44.050Z,19.07
2023-02-23T06:59:10.516Z,18.38
2023-02-23T07:01:36.950Z,19.23
2023-02-23T07:04:03.503Z,18.88
2023-02-23T07:06:29.865Z,18.17
2023-02-23T07:08:58.183Z,17.67
2023-02-23T07:11:24.584Z,18.90
2023-02-23T07:13:50.971Z,18.27
2023-02-23T07:16:17.370Z,18.52
2023-02-23T07:18:43.757Z,18.40
2023-02-23T07:21:10.171Z,19.00
2023-02-23T07:23:36.658Z,17.70
2023-02-23T07:26:03.056Z,19.35
2023-02-23T07:28:29.386Z,18.38
2023-02-23T07:30:57.309Z,18.80
2023-02-23T07:33:24.630Z,18.83
2023-02-23T07:35:51.644Z,19.10
2023-02-23T07:38:18.910Z,19.08
2023-02-23T07:40:45.330Z,19.00
2023-02-23T07:43:11.736Z,18.75
2023-02-23T07:45:38.349Z,18.70
2023-02-23T07:48:04.930Z,19.83
2023-02-23T07:50:31.326Z,18.95
2023-02-23T07:52:58.483Z,19.50
2023-02-23T07:55:24.847Z,19.23
2023-02-23T07:57:51.362Z,19.97
2023-02-23T08:00:18.149Z,18.50
2023-02-23T08:02:44.726Z,19.73
2023-02-23T08:05:11.525Z,20.50
2023-02-23T08:07:37.942Z,18.40
2023-02-23T08:10:04.683Z,19.07
2023-02-23T08:12:34.045Z,19.50
2023-02-23T08:15:00.471Z,20.38
2023-02-23T08:17:27.386Z,18.58
2023-02-23T08:19:53.779Z,19.00
2023-02-23T08:22:21.272Z,19.20
2023-02-23T08:24:47.731Z,18.85
2023-02-23T08:27:14.102Z,18.85
2023-02-23T08:29:40.450Z,18.58
2023-02-23T08:32:06.892Z,18.98
2023-02-23T08:34:38.297Z,18.93
2023-02-23T08:37:04.729Z,18.88
2023-02-23T08:39:31.221Z,17.65
2023-02-23T08:41:57.554Z,19.48
2023-02-23T08:44:24.060Z,18.85
2023-02-23T08:46:50.522Z,17.70
2023-02-23T08:49:17.007Z,17.30
2023-02-23T08:51:43.375Z,18.23
2023-02-23T08:54:14.308Z,18.88
2023-02-23T08:56:42.162Z,18.77
2023-02-23T08:59:09.497Z,17.03
2023-02-23T09:01:37.028Z,17.65
2023-02-23T09:04:04.931Z,16.50
2023-02-23T09:06:32.224Z,16.88
2023-02-23T09:08:58.673Z,18.45
2023-02-23T09:11:25.244Z,16.63
2023-02-23T09:13:51.590Z,16.20
2023-02-23T09:16:18.514Z,16.48
2023-02-23T09:18:45.362Z,16.27
2023-02-23T09:21:25.020Z,15.60
2023-02-23T09:23:54.469Z,15.77
2023-02-23T09:26:21.504Z,15.60
2023-02-23T09:28:49.378Z,15.20
2023-02-23T09:31:19.409Z,14.88
2023-02-23T09:33:46.679Z,15.23
2023-02-23T09:36:18.855Z,13.67
2023-02-23T09:38:48.390Z,14.10
2023-02-23T09:41:50.458Z,13.75
2023-02-23T09:44:19.559Z,12.43
2023-02-23T09:47:05.381Z,12.18
2023-02-23T09:49:35.989Z,12.13
2023-02-23T09:52:03.941Z,11.90
2023-02-23T09:54:34.389Z,12.80
2023-02-23T09:57:04.734Z,11.63
2023-02-23T09:59:31.249Z,12.00
2023-02-23T10:02:13.735Z,11.63
2023-02-23T10:04:50.361Z,12.23
2023-02-23T10:07:26.253Z,11.93
2023-02-23T10:10:23.576Z,12.32
2023-02-23T10:12:58.843Z,12.10
2023-02-23T10:15:52.164Z,11.20
2023-02-23T10:18:47.297Z,12.10
2023-02-23T10:21:32.625Z,12.23
2023-02-23T10:24:10.072Z,11.23
2023-02-23T10:26:51.030Z,11.70
2023-02-23T10:29:32.515Z,10.87
2023-02-23T10:32:43.861Z,11.45
2023-02-23T10:35:20.349Z,11.43
2023-02-23T10:37:47.842Z,10.93
2023-02-23T10:40:17.479Z,9.90
2023-02-23T10:42:43.992Z,10.03
2023-02-23T10:45:24.809Z,10.13
2023-02-23T10:48:01.774Z,9.68
2023-02-23T10:50:30.364Z,9.02
2023-02-23T10:53:11.858Z,9.05
2023-02-23T10:55:38.314Z,9.83
2023-02-23T10:58:17.746Z,9.23
2023-02-23T11:00:53.242Z,9.50
2023-02-23T11:03:28.652Z,8.48
2023-02-23T11:05:55.511Z,9.18
2023-02-23T11:08:29.277Z,9.33
2023-02-23T11:11:04.920Z,8.68
2023-02-23T11:13:40.510Z,9.23
2023-02-23T11:16:10.254Z,9.38
2023-02-23T11:18:39.142Z,8.73
2023-02-23T11:21:13.102Z,8.97
2023-02-23T11:23:41.274Z,8.75
2023-02-23T11:26:42.120Z,9.05
2023-02-23T11:29:36.558Z,8.10
2023-02-23T11:32:10.176Z,8.43
2023-02-23T11:34:40.979Z,8.67
2023-02-23T11:37:24.064Z,7.78
2023-02-23T11:39:57.254Z,7.38
2023-02-23T11:42:28.362Z,7.78
2023-02-23T11:45:20.533Z,7.55
2023-02-23T11:47:49.883Z,7.93
2023-02-23T11:50:27.623Z,6.47
2023-02-23T11:53:12.377Z,7.97
2023-02-23T11:55:38.980Z,7.18
2023-02-23T11:58:31.679Z,6.97
2023-02-23T12:01:11.111Z,7.13
2023-02-23T12:03:43.930Z,8.10
2023-02-23T12:06:10.873Z,8.23
2023-02-23T12:08:49.087Z,7.53
2023-02-23T12:11:22.479Z,8.48
2023-02-23T12:14:00.800Z,8.73
2023-02-23T12:16:33.617Z,8.73
2023-02-23T12:19:08.776Z,8.32
2023-02-23T12:21:42.029Z,9.07
2023-02-23T12:24:08.311Z,9.30
2023-02-23T12:26:50.229Z,8.93
2023-02-23T12:29:23.065Z,8.68
2023-02-23T12:31:58.162Z,8.75
2023-02-23T12:34:37.043Z,9.50
2023-02-23T12:37:18.123Z,8.50
2023-02-23T12:39:51.555Z,8.03
2023-02-23T12:42:24.101Z,7.43
2023-02-23T12:44:54.237Z,8.30
2023-02-23T12:47:34.978Z,8.63
2023-02-23T12:50:13.301Z,7.45
2023-02-23T12:52:53.650Z,6.90
2023-02-23T12:55:41.874Z,7.38
2023-02-23T12:58:29.290Z,8.27
2023-02-23T13:00:58.742Z,7.88
2023-02-23T13:03:38.854Z,7.30
2023-02-23T13:06:15.009Z,7.53
2023-02-23T13:08:53.491Z,8.70
2023-02-23T13:11:58.354Z,8.52
2023-02-23T13:14:53.985Z,7.60
2023-02-23T13:17:47.910Z,7.90
2023-02-23T13:20:30.991Z,6.83
2023-02-23T13:23:11.010Z,7.05
2023-02-23T13:26:18.470Z,6.80
2023-02-23T13:28:50.552Z,6.63
2023-02-23T13:31:42.000Z,6.10
2023-02-23T13:34:20.809Z,6.70
2023-02-23T13:36:50.463Z,5.70
2023-02-23T13:39:29.137Z,6.80
2023-02-23T13:41:55.450Z,6.18
2023-02-23T13:44:49.145Z,7.03
2023-02-23T13:47:31.118Z,6.93
2023-02-23T13:50:25.283Z,6.35
2023-02-23T13:52:58.369Z,7.28
2023-02-23T13:55:32.614Z,6.80
2023-02-23T13:58:15.296Z,7.25
2023-02-23T14:00:42.876Z,7.10
2023-02-23T14:03:24.533Z,7.15
2023-02-23T14:05:57.386Z,7.43
2023-02-23T14:08:34.813Z,7.63
2023-02-23T14:11:01.866Z,6.93
2023-02-23T14:13:32.367Z,6.60
2023-02-23T14:16:14.546Z,6.03
2023-02-23T14:19:08.865Z,6.30
2023-02-23T14:21:58.280Z,5.82
2023-02-23T14:24:26.754Z,5.97
2023-02-23T14:27:09.339Z,5.67
2023-02-23T14:29:45.361Z,6.68
2023-02-23T14:32:14.775Z,8.10
2023-02-23T14:34:57.063Z,7.00
2023-02-23T14:37:26.421Z,7.28
2023-02-23T14:40:01.337Z,7.67
2023-02-23T14:42:29.879Z,7.72
2023-02-23T14:45:02.554Z,7.78
2023-02-23T14:47:29.024Z,8.48
2023-02-23T14:49:59.318Z,8.40
2023-02-23T14:52:46.424Z,9.53
2023-02-23T14:55:12.708Z,9.70
2023-02-23T14:57:41.433Z,10.60
2023-02-23T15:00:12.657Z,9.50
2023-02-23T15:02:53.634Z,10.98
2023-02-23T15:05:24.251Z,11.53
2023-02-23T15:07:51.949Z,11.02
2023-02-23T15:10:26.062Z,11.43
2023-02-23T15:12:53.480Z,12.20
2023-02-23T15:15:23.595Z,12.90
2023-02-23T15:17:53.077Z,13.93
2023-02-23T15:20:28.676Z,10.82
2023-02-23T15:22:59.221Z,8.93
2023-02-23T15:25:34.655Z,6.30
2023-02-23T15:28:11.442Z,3.10
2023-02-23T15:30:46.789Z,3.00
2023-02-23T15:33:15.480Z,2.80
2023-02-23T15:35:56.045Z,2.65
2023-02-23T15:38:43.923Z,2.35
2023-02-23T15:41:25.062Z,2.25
2023-02-23T15:43:51.773Z,2.20
2023-02-23T15:46:24.970Z,3.17
2023-02-23T15:48:54.033Z,2.90
2023-02-23T15:51:28.889Z,2.90
2023-02-23T15:53:55.531Z,2.10
2023-02-23T15:56:30.578Z,1.43
2023-02-23T15:59:03.082Z,1.58
2023-02-23T16:01:31.747Z,1.77
2023-02-23T16:04:02.536Z,1.38
2023-02-23T16:06:34.931Z,2.03
2023-02-23T16:09:21.188Z,1.73
2023-02-23T16:11:54.124Z,1.92
2023-02-23T16:14:23.156Z,1.67
2023-02-23T16:17:08.319Z,1.58
2023-02-23T16:19:40.605Z,2.22
2023-02-23T16:22:14.438Z,2.27
2023-02-23T16:24:40.854Z,2.20
2023-02-23T16:27:07.410Z,2.50
2023-02-23T16:29:43.207Z,1.67
2023-02-23T16:32:20.634Z,2.53
2023-02-23T16:34:50.795Z,2.40
2023-02-23T16:37:23.485Z,2.15
2023-02-23T16:39:49.843Z,2.15
2023-02-23T16:42:32.225Z,1.73
2023-02-23T16:44:59.686Z,2.60
2023-02-23T16:47:36.277Z,1.97
2023-02-23T16:50:30.508Z,2.08
2023-02-23T16:52:56.823Z,1.42
2023-02-23T16:55:25.665Z,1.80
2023-02-23T16:57:55.573Z,2.20
2023-02-23T17:00:25.298Z,1.77
2023-02-23T17:02:51.993Z,2.03
2023-02-23T17:05:22.627Z,2.28
2023-02-23T17:07:50.153Z,2.50
2023-02-23T17:10:25.952Z,2.38
2023-02-23T17:13:20.465Z,1.80
2023-02-23T17:15:51.812Z,1.95
2023-02-23T17:18:20.493Z,2.63
2023-02-23T17:20:46.898Z,2.25
2023-02-23T17:23:13.285Z,1.65
2023-02-23T17:25:39.750Z,2.37
2023-02-23T17:28:06.199Z,2.08
2023-02-23T17:30:34.446Z,2.15
2023-02-23T17:33:01.459Z,1.67
2023-02-23T17:35:28.168Z,2.60
2023-02-23T17:37:54.846Z,1.83
2023-02-23T17:40:31.124Z,1.38
2023-02-23T17:43:00.702Z,1.92
2023-02-23T17:45:28.550Z,1.55
2023-02-23T17:47:55.413Z,2.25
2023-02-23T17:50:22.402Z,2.13
2023-02-23T17:52:50.615Z,1.48
2023-02-23T17:55:18.744Z,1.98
2023-02-23T17:57:45.165Z,1.15
2023-02-23T18:00:13.656Z,1.90
2023-02-23T18:02:41.048Z,1.30
2023-02-23T18:05:09.232Z,1.20
2023-02-23T18:07:36.386Z,1.90
2023-02-23T18:10:03.921Z,1.40
2023-02-23T18:12:30.317Z,1.20
2023-02-23T18:14:58.031Z,1.90
2023-02-23T18:17:24.605Z,1.25
2023-02-23T18:19:51.231Z,1.58
2023-02-23T18:22:18.473Z,1.10
2023-02-23T18:24:44.921Z,1.60
2023-02-23T18:27:12.652Z,1.87
2023-02-23T18:29:39.451Z,1.95
2023-02-23T18:32:08.278Z,1.70
2023-02-23T18:34:35.186Z,1.58
2023-02-23T18:37:03.409Z,1.52
2023-02-23T18:39:31.449Z,1.80
2023-02-23T18:41:59.422Z,1.50
2023-02-23T18:44:26.894Z,2.13
2023-02-23T18:46:54.789Z,1.77
2023-02-23T18:49:23.839Z,1.50
2023-02-23T18:51:50.273Z,1.70
2023-02-23T18:54:16.868Z,1.38
2023-02-23T18:56:44.961Z,1.27
2023-02-23T18:59:11.698Z,1.20
2023-02-23T19:01:38.438Z,1.08
2023-02-23T19:04:07.642Z,1.73
2023-02-23T19:06:37.416Z,1.38
2023-02-23T19:09:07.716Z,0.90
2023-02-23T19:11:34.554Z,0.85
2023-02-23T19:14:03.745Z,1.42
2023-02-23T19:16:32.261Z,1.47
2023-02-23T19:19:00.092Z,0.80
2023-02-23T19:21:26.617Z,0.98
2023-02-23T19:23:56.272Z,1.10
2023-02-23T19:26:22.760Z,0.90
2023-02-23T19:28:49.107Z,0.73
2023-02-23T19:31:20.590Z,1.15
2023-02-23T19:33:50.507Z,0.80
2023-02-23T19:36:19.693Z,1.35
2023-02-23T19:38:46.262Z,1.67
2023-02-23T19:41:16.114Z,1.53
2023-02-23T19:43:42.628Z,1.08
2023-02-23T19:46:12.222Z,1.25
2023-02-23T19:48:39.035Z,1.60
2023-02-23T19:51:10.002Z,1.15
2023-02-23T19:53:37.287Z,1.30
2023-02-23T19:56:15.142Z,1.67
2023-02-23T19:58:46.456Z,1.50
2023-02-23T20:01:16.669Z,1.45
2023-02-23T20:03:47.313Z,2.17
2023-02-23T20:06:15.913Z,2.50
2023-02-23T20:08:44.551Z,2.30
2023-02-23T20:11:11.996Z,2.53
2023-02-23T20:13:41.285Z,2.47
2023-02-23T20:16:13.009Z,2.33
2023-02-23T20:18:40.762Z,2.10
2023-02-23T20:21:12.650Z,1.92
2023-02-23T20:23:40.303Z,2.30
2023-02-23T20:26:08.247Z,2.15
2023-02-23T20:28:35.054Z,2.30
2023-02-23T20:31:02.463Z,2.43
2023-02-23T20:33:30.618Z,2.10
2023-02-23T20:35:57.701Z,2.00
2023-02-23T20:38:24.066Z,1.83
2023-02-23T20:40:51.316Z,2.33
2023-02-23T20:43:17.663Z,2.00
2023-02-23T20:45:44.204Z,2.05
2023-02-23T20:48:10.691Z,1.92
2023-02-23T20:50:37.499Z,1.80
2023-02-23T20:53:05.240Z,2.13
2023-02-23T20:55:32.324Z,3.20
2023-02-23T20:57:58.898Z,2.53
2023-02-23T21:00:31.809Z,2.55
2023-02-23T21:03:03.042Z,2.65
2023-02-23T21:05:33.514Z,2.10
2023-02-23T21:08:05.649Z,1.80
2023-02-23T21:10:35.228Z,1.80
2023-02-23T21:13:01.975Z,1.70
2023-02-23T21:15:29.348Z,2.20
2023-02-23T21:17:57.334Z,1.95
2023-02-23T21:20:25.478Z,2.37
2023-02-23T21:22:51.828Z,2.00
2023-02-23T21:25:20.096Z,2.45
2023-02-23T21:27:47.841Z,1.77
2023-02-23T21:30:16.338Z,2.53
2023-02-23T21:32:43.601Z,2.63
2023-02-23T21:35:10.835Z,2.45
2023-02-23T21:37:39.029Z,2.45
2023-02-23T21:40:10.356Z,2.38
2023-02-23T21:42:38.603Z,2.00
2023-02-23T21:45:05.569Z,2.13
2023-02-23T21:47:35.255Z,2.20
2023-02-23T21:50:02.575Z,2.55
2023-02-23T21:52:31.292Z,2.55
2023-02-23T21:54:59.259Z,2.33
2023-02-23T21:57:28.084Z,2.70
2023-02-23T21:59:54.598Z,2.83
2023-02-23T22:02:21.057Z,3.00
2023-02-23T22:04:49.253Z,2.60
2023-02-23T22:07:16.886Z,2.95
2023-02-23T22:09:44.328Z,2.40
2023-02-23T22:12:10.756Z,2.47
2023-02-23T22:14:37.288Z,3.00
2023-02-23T22:17:06.348Z,2.13
2023-02-23T22:19:33.175Z,2.35
2023-02-23T22:21:59.627Z,3.10
2023-02-23T22:24:26.116Z,2.72
2023-02-23T22:26:55.419Z,2.50
2023-02-23T22:29:24.797Z,2.72
2023-02-23T22:31:51.802Z,3.13
2023-02-23T22:34:18.775Z,2.60
2023-02-23T22:36:45.494Z,2.70
2023-02-23T22:39:14.033Z,2.75
2023-02-23T22:41:43.401Z,2.50
2023-02-23T22:44:18.957Z,2.50
2023-02-23T22:46:48.219Z,3.77
2023-02-23T22:49:15.899Z,2.63
2023-02-23T22:51:43.765Z,2.45
2023-02-23T22:54:11.633Z,2.55
2023-02-23T22:56:38.313Z,2.10
2023-02-23T22:59:06.262Z,2.63
2023-02-23T23:01:33.411Z,2.40
2023-02-23T23:03:59.970Z,2.38
2023-02-23T23:06:26.883Z,2.42
2023-02-23T23:08:56.241Z,2.22
2023-02-23T23:11:26.731Z,2.37
2023-02-23T23:14:01.203Z,1.67
2023-02-23T23:16:33.451Z,1.90
2023-02-23T23:19:03.543Z,2.47
2023-02-23T23:21:32.753Z,2.33
2023-02-23T23:24:01.627Z,2.20
2023-02-23T23:26:29.413Z,2.05
2023-02-23T23:28:58.418Z,2.30
2023-02-23T23:31:29.271Z,1.95
2023-02-23T23:34:00.034Z,1.92
2023-02-23T23:36:30.043Z,1.63
2023-02-23T23:38:56.555Z,1.52
2023-02-23T23:41:25.487Z,1.98
2023-02-23T23:43:54.706Z,1.75
2023-02-23T23:46:24.876Z,1.90
2023-02-23T23:48:55.584Z,1.63
2023-02-23T23:51:24.330Z,1.65
2023-02-23T23:53:59.609Z,1.65
2023-02-23T23:56:26.535Z,1.40
2023-02-23T23:58:54.062Z,1.65
